sensor_id;sensor_type;location;lat;lon;timestamp;P1;durP1;ratioP1;P2;durP2;ratioP2
2408;SDS011;8463;48.094;7.970;2023-05-02T00:01:55;4.87;;;3.80;;
2408;SDS011;8463;48.094;7.970;2023-05-02T00:04:21;3.47;;;3.27;;
2408;SDS011;8463;48.094;7.970;2023-05-02T00:06:46;3.90;;;3.50;;
2408;SDS011;8463;48.094;7.970;2023-05-02T00:09:12;3.87;;;3.57;;
2408;SDS011;8463;48.094;7.970;2023-05-02T00:11:38;3.63;;;3.33;;
2408;SDS011;8463;48.094;7.970;2023-05-02T00:14:04;3.50;;;3.20;;
2408;SDS011;8463;48.094;7.970;2023-05-02T00:16:29;3.73;;;3.43;;
2408;SDS011;8463;48.094;7.970;2023-05-02T00:18:55;4.23;;;3.93;;
2408;SDS011;8463;48.094;7.970;2023-05-02T00:21:21;3.87;;;3.57;;
2408;SDS011;8463;48.094;7.970;2023-05-02T00:23:46;3.47;;;3.17;;
2408;SDS011;8463;48.094;7.970;2023-05-02T00:26:12;3.63;;;3.30;;
2408;SDS011;8463;48.094;7.970;2023-05-02T00:28:37;3.13;;;2.93;;
2408;SDS011;8463;48.094;7.970;2023-05-02T00:31:10;3.80;;;3.50;;
2408;SDS011;8463;48.094;7.970;2023-05-02T00:33:35;3.60;;;3.30;;
2408;SDS011;8463;48.094;7.970;2023-05-02T00:36:01;4.17;;;3.77;;
2408;SDS011;8463;48.094;7.970;2023-05-02T00:40:53;5.87;;;3.90;;
2408;SDS011;8463;48.094;7.970;2023-05-02T00:43:21;4.47;;;4.10;;
2408;SDS011;8463;48.094;7.970;2023-05-02T00:45:48;4.07;;;3.77;;
2408;SDS011;8463;48.094;7.970;2023-05-02T00:48:14;5.13;;;4.70;;
2408;SDS011;8463;48.094;7.970;2023-05-02T00:50:41;3.93;;;3.63;;
2408;SDS011;8463;48.094;7.970;2023-05-02T00:53:10;3.63;;;3.33;;
2408;SDS011;8463;48.094;7.970;2023-05-02T00:55:36;4.33;;;3.97;;
2408;SDS011;8463;48.094;7.970;2023-05-02T00:58:07;4.83;;;4.33;;
2408;SDS011;8463;48.094;7.970;2023-05-02T01:00:48;4.57;;;4.17;;
2408;SDS011;8463;48.094;7.970;2023-05-02T01:03:40;4.10;;;3.80;;
2408;SDS011;8463;48.094;7.970;2023-05-02T01:06:20;4.00;;;3.70;;
2408;SDS011;8463;48.094;7.970;2023-05-02T01:11:58;4.47;;;4.07;;
2408;SDS011;8463;48.094;7.970;2023-05-02T01:14:28;4.13;;;3.73;;
2408;SDS011;8463;48.094;7.970;2023-05-02T01:17:01;4.23;;;3.87;;
2408;SDS011;8463;48.094;7.970;2023-05-02T01:19:36;3.17;;;2.90;;
2408;SDS011;8463;48.094;7.970;2023-05-02T01:22:06;3.60;;;2.97;;
2408;SDS011;8463;48.094;7.970;2023-05-02T01:29:52;5.23;;;4.73;;
2408;SDS011;8463;48.094;7.970;2023-05-02T01:32:21;4.10;;;3.80;;
2408;SDS011;8463;48.094;7.970;2023-05-02T01:34:55;4.20;;;3.87;;
2408;SDS011;8463;48.094;7.970;2023-05-02T01:37:23;5.13;;;4.63;;
2408;SDS011;8463;48.094;7.970;2023-05-02T01:39:53;4.20;;;3.90;;
2408;SDS011;8463;48.094;7.970;2023-05-02T01:42:20;6.10;;;4.10;;
2408;SDS011;8463;48.094;7.970;2023-05-02T01:44:47;5.30;;;4.80;;
2408;SDS011;8463;48.094;7.970;2023-05-02T01:47:15;4.27;;;3.87;;
2408;SDS011;8463;48.094;7.970;2023-05-02T01:49:46;4.07;;;3.77;;
2408;SDS011;8463;48.094;7.970;2023-05-02T01:52:12;4.60;;;4.20;;
2408;SDS011;8463;48.094;7.970;2023-05-02T01:54:39;4.63;;;4.23;;
2408;SDS011;8463;48.094;7.970;2023-05-02T01:57:06;4.00;;;3.70;;
2408;SDS011;8463;48.094;7.970;2023-05-02T01:59:34;3.40;;;3.10;;
2408;SDS011;8463;48.094;7.970;2023-05-02T02:02:01;4.57;;;4.20;;
2408;SDS011;8463;48.094;7.970;2023-05-02T02:04:29;4.57;;;4.17;;
2408;SDS011;8463;48.094;7.970;2023-05-02T02:06:57;4.43;;;4.03;;
2408;SDS011;8463;48.094;7.970;2023-05-02T02:09:27;4.50;;;4.20;;
2408;SDS011;8463;48.094;7.970;2023-05-02T02:12:06;4.33;;;4.00;;
2408;SDS011;8463;48.094;7.970;2023-05-02T02:14:37;4.73;;;3.90;;
2408;SDS011;8463;48.094;7.970;2023-05-02T02:17:26;4.60;;;4.20;;
2408;SDS011;8463;48.094;7.970;2023-05-02T02:20:02;4.90;;;4.50;;
2408;SDS011;8463;48.094;7.970;2023-05-02T02:22:32;4.20;;;3.80;;
2408;SDS011;8463;48.094;7.970;2023-05-02T02:25:01;4.37;;;4.07;;
2408;SDS011;8463;48.094;7.970;2023-05-02T02:27:32;4.40;;;4.10;;
2408;SDS011;8463;48.094;7.970;2023-05-02T02:29:57;4.17;;;3.87;;
2408;SDS011;8463;48.094;7.970;2023-05-02T02:32:23;4.43;;;4.03;;
2408;SDS011;8463;48.094;7.970;2023-05-02T02:34:49;4.40;;;4.10;;
2408;SDS011;8463;48.094;7.970;2023-05-02T02:37:18;5.97;;;4.03;;
2408;SDS011;8463;48.094;7.970;2023-05-02T02:39:51;4.80;;;4.40;;
2408;SDS011;8463;48.094;7.970;2023-05-02T02:42:35;4.00;;;3.70;;
2408;SDS011;8463;48.094;7.970;2023-05-02T02:45:37;5.10;;;4.40;;
2408;SDS011;8463;48.094;7.970;2023-05-02T02:48:39;5.37;;;4.30;;
2408;SDS011;8463;48.094;7.970;2023-05-02T02:56:58;4.13;;;3.83;;
2408;SDS011;8463;48.094;7.970;2023-05-02T02:59:41;6.87;;;4.73;;
2408;SDS011;8463;48.094;7.970;2023-05-02T03:02:19;4.77;;;3.97;;
2408;SDS011;8463;48.094;7.970;2023-05-02T03:04:49;3.87;;;3.57;;
2408;SDS011;8463;48.094;7.970;2023-05-02T03:07:19;3.70;;;3.40;;
2408;SDS011;8463;48.094;7.970;2023-05-02T03:09:45;4.07;;;3.77;;
2408;SDS011;8463;48.094;7.970;2023-05-02T03:12:14;4.70;;;4.30;;
2408;SDS011;8463;48.094;7.970;2023-05-02T03:14:42;4.23;;;3.87;;
2408;SDS011;8463;48.094;7.970;2023-05-02T03:17:13;4.57;;;4.17;;
2408;SDS011;8463;48.094;7.970;2023-05-02T03:19:38;4.33;;;4.03;;
2408;SDS011;8463;48.094;7.970;2023-05-02T03:22:04;4.93;;;4.43;;
2408;SDS011;8463;48.094;7.970;2023-05-02T03:24:30;6.03;;;4.73;;
2408;SDS011;8463;48.094;7.970;2023-05-02T03:26:57;4.03;;;3.73;;
2408;SDS011;8463;48.094;7.970;2023-05-02T03:29:23;5.07;;;4.57;;
2408;SDS011;8463;48.094;7.970;2023-05-02T03:31:50;5.03;;;4.57;;
2408;SDS011;8463;48.094;7.970;2023-05-02T03:34:16;4.80;;;4.50;;
2408;SDS011;8463;48.094;7.970;2023-05-02T03:36:41;5.07;;;4.57;;
2408;SDS011;8463;48.094;7.970;2023-05-02T03:39:07;4.70;;;4.30;;
2408;SDS011;8463;48.094;7.970;2023-05-02T03:41:35;7.23;;;4.57;;
2408;SDS011;8463;48.094;7.970;2023-05-02T03:44:00;4.20;;;3.77;;
2408;SDS011;8463;48.094;7.970;2023-05-02T03:46:27;4.93;;;4.43;;
2408;SDS011;8463;48.094;7.970;2023-05-02T03:48:53;4.47;;;4.07;;
2408;SDS011;8463;48.094;7.970;2023-05-02T03:51:21;4.97;;;4.47;;
2408;SDS011;8463;48.094;7.970;2023-05-02T03:53:47;4.63;;;4.23;;
2408;SDS011;8463;48.094;7.970;2023-05-02T03:56:15;4.87;;;4.40;;
2408;SDS011;8463;48.094;7.970;2023-05-02T03:58:44;6.63;;;4.23;;
2408;SDS011;8463;48.094;7.970;2023-05-02T04:01:18;4.40;;;3.80;;
2408;SDS011;8463;48.094;7.970;2023-05-02T04:03:43;4.17;;;3.87;;
2408;SDS011;8463;48.094;7.970;2023-05-02T04:06:10;4.30;;;3.87;;
2408;SDS011;8463;48.094;7.970;2023-05-02T04:08:38;4.70;;;4.40;;
2408;SDS011;8463;48.094;7.970;2023-05-02T04:11:03;4.47;;;4.07;;
2408;SDS011;8463;48.094;7.970;2023-05-02T04:13:29;4.13;;;3.77;;
2408;SDS011;8463;48.094;7.970;2023-05-02T04:15:55;5.20;;;4.17;;
2408;SDS011;8463;48.094;7.970;2023-05-02T04:18:21;6.83;;;4.70;;
2408;SDS011;8463;48.094;7.970;2023-05-02T04:20:47;4.27;;;3.90;;
2408;SDS011;8463;48.094;7.970;2023-05-02T04:23:12;4.53;;;4.13;;
2408;SDS011;8463;48.094;7.970;2023-05-02T04:25:38;4.00;;;3.60;;
2408;SDS011;8463;48.094;7.970;2023-05-02T04:28:04;5.23;;;4.73;;
2408;SDS011;8463;48.094;7.970;2023-05-02T04:30:30;4.93;;;4.53;;
2408;SDS011;8463;48.094;7.970;2023-05-02T04:32:56;5.23;;;4.10;;
2408;SDS011;8463;48.094;7.970;2023-05-02T04:35:24;4.33;;;3.93;;
2408;SDS011;8463;48.094;7.970;2023-05-02T04:37:50;5.60;;;4.27;;
2408;SDS011;8463;48.094;7.970;2023-05-02T04:40:16;4.70;;;4.30;;
2408;SDS011;8463;48.094;7.970;2023-05-02T04:42:42;4.67;;;4.27;;
2408;SDS011;8463;48.094;7.970;2023-05-02T04:45:08;4.77;;;4.37;;
2408;SDS011;8463;48.094;7.970;2023-05-02T04:47:34;4.80;;;4.40;;
2408;SDS011;8463;48.094;7.970;2023-05-02T04:50:00;5.60;;;5.10;;
2408;SDS011;8463;48.094;7.970;2023-05-02T04:52:25;5.03;;;4.60;;
2408;SDS011;8463;48.094;7.970;2023-05-02T04:54:51;4.43;;;4.10;;
2408;SDS011;8463;48.094;7.970;2023-05-02T04:57:18;5.73;;;5.33;;
2408;SDS011;8463;48.094;7.970;2023-05-02T04:59:44;5.47;;;4.97;;
2408;SDS011;8463;48.094;7.970;2023-05-02T05:02:12;5.97;;;4.60;;
2408;SDS011;8463;48.094;7.970;2023-05-02T05:04:38;6.10;;;5.40;;
2408;SDS011;8463;48.094;7.970;2023-05-02T05:07:03;5.33;;;4.43;;
2408;SDS011;8463;48.094;7.970;2023-05-02T05:09:29;5.33;;;4.90;;
2408;SDS011;8463;48.094;7.970;2023-05-02T05:12:01;5.23;;;4.80;;
2408;SDS011;8463;48.094;7.970;2023-05-02T05:14:27;5.43;;;5.03;;
2408;SDS011;8463;48.094;7.970;2023-05-02T05:16:52;5.30;;;4.87;;
2408;SDS011;8463;48.094;7.970;2023-05-02T05:19:21;4.40;;;4.00;;
2408;SDS011;8463;48.094;7.970;2023-05-02T05:21:49;4.90;;;4.40;;
2408;SDS011;8463;48.094;7.970;2023-05-02T05:24:17;5.87;;;5.10;;
2408;SDS011;8463;48.094;7.970;2023-05-02T05:26:42;6.03;;;5.43;;
2408;SDS011;8463;48.094;7.970;2023-05-02T05:29:11;4.20;;;3.63;;
2408;SDS011;8463;48.094;7.970;2023-05-02T05:31:36;5.90;;;5.10;;
2408;SDS011;8463;48.094;7.970;2023-05-02T05:34:02;5.90;;;5.30;;
2408;SDS011;8463;48.094;7.970;2023-05-02T05:36:28;5.20;;;4.80;;
2408;SDS011;8463;48.094;7.970;2023-05-02T05:38:55;4.27;;;3.90;;
2408;SDS011;8463;48.094;7.970;2023-05-02T05:41:24;4.67;;;4.27;;
2408;SDS011;8463;48.094;7.970;2023-05-02T05:43:50;5.93;;;5.43;;
2408;SDS011;8463;48.094;7.970;2023-05-02T05:46:16;5.60;;;5.10;;
2408;SDS011;8463;48.094;7.970;2023-05-02T05:48:41;5.57;;;5.07;;
2408;SDS011;8463;48.094;7.970;2023-05-02T05:51:09;5.13;;;4.63;;
2408;SDS011;8463;48.094;7.970;2023-05-02T05:53:35;5.30;;;4.83;;
2408;SDS011;8463;48.094;7.970;2023-05-02T05:56:11;5.50;;;5.10;;
2408;SDS011;8463;48.094;7.970;2023-05-02T05:58:37;4.87;;;4.30;;
2408;SDS011;8463;48.094;7.970;2023-05-02T06:01:03;4.80;;;4.40;;
2408;SDS011;8463;48.094;7.970;2023-05-02T06:03:29;5.10;;;4.60;;
2408;SDS011;8463;48.094;7.970;2023-05-02T06:05:55;4.60;;;4.20;;
2408;SDS011;8463;48.094;7.970;2023-05-02T06:08:21;4.57;;;4.20;;
2408;SDS011;8463;48.094;7.970;2023-05-02T06:10:53;4.80;;;4.40;;
2408;SDS011;8463;48.094;7.970;2023-05-02T06:13:18;6.17;;;5.23;;
2408;SDS011;8463;48.094;7.970;2023-05-02T06:15:45;4.90;;;4.50;;
2408;SDS011;8463;48.094;7.970;2023-05-02T06:18:11;7.20;;;5.97;;
2408;SDS011;8463;48.094;7.970;2023-05-02T06:20:37;6.60;;;6.00;;
2408;SDS011;8463;48.094;7.970;2023-05-02T06:23:02;5.73;;;5.20;;
2408;SDS011;8463;48.094;7.970;2023-05-02T06:25:28;7.07;;;6.47;;
2408;SDS011;8463;48.094;7.970;2023-05-02T06:27:54;5.77;;;5.37;;
2408;SDS011;8463;48.094;7.970;2023-05-02T06:30:20;6.70;;;6.10;;
2408;SDS011;8463;48.094;7.970;2023-05-02T06:32:51;6.80;;;6.20;;
2408;SDS011;8463;48.094;7.970;2023-05-02T06:35:17;6.40;;;5.87;;
2408;SDS011;8463;48.094;7.970;2023-05-02T06:37:42;5.90;;;5.40;;
2408;SDS011;8463;48.094;7.970;2023-05-02T06:40:08;6.20;;;5.70;;
2408;SDS011;8463;48.094;7.970;2023-05-02T06:42:40;6.87;;;6.30;;
2408;SDS011;8463;48.094;7.970;2023-05-02T06:45:06;6.27;;;5.67;;
2408;SDS011;8463;48.094;7.970;2023-05-02T06:47:33;6.43;;;5.83;;
2408;SDS011;8463;48.094;7.970;2023-05-02T06:49:58;5.93;;;5.53;;
2408;SDS011;8463;48.094;7.970;2023-05-02T06:52:24;6.30;;;5.70;;
2408;SDS011;8463;48.094;7.970;2023-05-02T06:54:52;6.30;;;5.77;;
2408;SDS011;8463;48.094;7.970;2023-05-02T06:57:18;5.40;;;5.00;;
2408;SDS011;8463;48.094;7.970;2023-05-02T06:59:43;5.73;;;5.23;;
2408;SDS011;8463;48.094;7.970;2023-05-02T07:02:12;6.87;;;5.13;;
2408;SDS011;8463;48.094;7.970;2023-05-02T07:04:38;7.50;;;6.83;;
2408;SDS011;8463;48.094;7.970;2023-05-02T07:07:03;6.03;;;4.90;;
2408;SDS011;8463;48.094;7.970;2023-05-02T07:09:29;4.20;;;3.90;;
2408;SDS011;8463;48.094;7.970;2023-05-02T07:11:55;5.00;;;4.50;;
2408;SDS011;8463;48.094;7.970;2023-05-02T07:14:21;5.30;;;4.87;;
2408;SDS011;8463;48.094;7.970;2023-05-02T07:16:49;4.83;;;4.43;;
2408;SDS011;8463;48.094;7.970;2023-05-02T07:19:15;4.73;;;4.33;;
2408;SDS011;8463;48.094;7.970;2023-05-02T07:21:41;4.80;;;4.40;;
2408;SDS011;8463;48.094;7.970;2023-05-02T07:24:07;4.83;;;4.33;;
2408;SDS011;8463;48.094;7.970;2023-05-02T07:26:32;5.37;;;4.97;;
2408;SDS011;8463;48.094;7.970;2023-05-02T07:28:58;5.30;;;4.80;;
2408;SDS011;8463;48.094;7.970;2023-05-02T07:31:23;5.70;;;5.20;;
2408;SDS011;8463;48.094;7.970;2023-05-02T07:33:49;7.80;;;6.83;;
2408;SDS011;8463;48.094;7.970;2023-05-02T07:36:15;9.70;;;8.77;;
2408;SDS011;8463;48.094;7.970;2023-05-02T07:38:42;7.97;;;7.20;;
2408;SDS011;8463;48.094;7.970;2023-05-02T07:41:09;8.83;;;8.03;;
2408;SDS011;8463;48.094;7.970;2023-05-02T07:43:37;9.83;;;8.93;;
2408;SDS011;8463;48.094;7.970;2023-05-02T07:46:03;8.50;;;7.60;;
2408;SDS011;8463;48.094;7.970;2023-05-02T07:48:33;9.57;;;8.70;;
2408;SDS011;8463;48.094;7.970;2023-05-02T07:51:09;7.87;;;7.00;;
2408;SDS011;8463;48.094;7.970;2023-05-02T07:53:35;9.57;;;8.67;;
2408;SDS011;8463;48.094;7.970;2023-05-02T07:56:04;8.13;;;7.43;;
2408;SDS011;8463;48.094;7.970;2023-05-02T07:58:33;8.10;;;7.33;;
2408;SDS011;8463;48.094;7.970;2023-05-02T08:01:02;8.60;;;7.90;;
2408;SDS011;8463;48.094;7.970;2023-05-02T08:03:31;9.20;;;7.80;;
2408;SDS011;8463;48.094;7.970;2023-05-02T08:05:56;6.63;;;6.00;;
2408;SDS011;8463;48.094;7.970;2023-05-02T08:08:22;8.90;;;8.00;;
2408;SDS011;8463;48.094;7.970;2023-05-02T08:10:49;10.63;;;8.70;;
2408;SDS011;8463;48.094;7.970;2023-05-02T08:13:18;8.53;;;7.73;;
2408;SDS011;8463;48.094;7.970;2023-05-02T08:15:43;7.73;;;7.10;;
2408;SDS011;8463;48.094;7.970;2023-05-02T08:18:09;10.00;;;9.10;;
2408;SDS011;8463;48.094;7.970;2023-05-02T08:20:35;10.57;;;9.47;;
2408;SDS011;8463;48.094;7.970;2023-05-02T08:23:01;9.20;;;8.40;;
2408;SDS011;8463;48.094;7.970;2023-05-02T08:25:27;9.53;;;8.50;;
2408;SDS011;8463;48.094;7.970;2023-05-02T08:27:54;9.30;;;8.40;;
2408;SDS011;8463;48.094;7.970;2023-05-02T08:30:19;9.17;;;8.33;;
2408;SDS011;8463;48.094;7.970;2023-05-02T08:32:46;10.20;;;9.30;;
2408;SDS011;8463;48.094;7.970;2023-05-02T08:35:11;9.47;;;8.60;;
2408;SDS011;8463;48.094;7.970;2023-05-02T08:37:38;9.13;;;8.33;;
2408;SDS011;8463;48.094;7.970;2023-05-02T08:40:04;4.80;;;4.40;;
2408;SDS011;8463;48.094;7.970;2023-05-02T08:42:32;7.53;;;6.83;;
2408;SDS011;8463;48.094;7.970;2023-05-02T08:45:02;7.60;;;6.90;;
2408;SDS011;8463;48.094;7.970;2023-05-02T08:47:29;8.50;;;7.80;;
2408;SDS011;8463;48.094;7.970;2023-05-02T08:49:58;7.63;;;7.03;;
2408;SDS011;8463;48.094;7.970;2023-05-02T08:52:25;7.63;;;6.93;;
2408;SDS011;8463;48.094;7.970;2023-05-02T08:54:51;8.70;;;7.80;;
2408;SDS011;8463;48.094;7.970;2023-05-02T08:57:18;8.83;;;8.03;;
2408;SDS011;8463;48.094;7.970;2023-05-02T08:59:50;6.73;;;6.13;;
2408;SDS011;8463;48.094;7.970;2023-05-02T09:05:16;7.43;;;6.73;;
2408;SDS011;8463;48.094;7.970;2023-05-02T09:07:45;7.20;;;6.50;;
2408;SDS011;8463;48.094;7.970;2023-05-02T09:10:15;5.67;;;5.17;;
2408;SDS011;8463;48.094;7.970;2023-05-02T09:12:44;6.63;;;6.03;;
2408;SDS011;8463;48.094;7.970;2023-05-02T09:15:13;6.73;;;6.13;;
2408;SDS011;8463;48.094;7.970;2023-05-02T09:17:44;6.80;;;6.20;;
2408;SDS011;8463;48.094;7.970;2023-05-02T09:20:11;6.33;;;5.70;;
2408;SDS011;8463;48.094;7.970;2023-05-02T09:22:39;5.73;;;5.10;;
2408;SDS011;8463;48.094;7.970;2023-05-02T09:25:16;6.37;;;5.77;;
2408;SDS011;8463;48.094;7.970;2023-05-02T09:27:55;6.30;;;5.70;;
2408;SDS011;8463;48.094;7.970;2023-05-02T09:30:23;6.20;;;5.70;;
2408;SDS011;8463;48.094;7.970;2023-05-02T09:32:50;6.67;;;5.90;;
2408;SDS011;8463;48.094;7.970;2023-05-02T09:35:22;7.67;;;6.97;;
2408;SDS011;8463;48.094;7.970;2023-05-02T09:37:51;7.87;;;7.17;;
2408;SDS011;8463;48.094;7.970;2023-05-02T09:40:18;6.97;;;6.27;;
2408;SDS011;8463;48.094;7.970;2023-05-02T09:42:46;7.07;;;6.37;;
2408;SDS011;8463;48.094;7.970;2023-05-02T09:45:18;5.80;;;5.30;;
2408;SDS011;8463;48.094;7.970;2023-05-02T09:47:46;8.70;;;7.37;;
2408;SDS011;8463;48.094;7.970;2023-05-02T09:53:01;6.50;;;6.00;;
2408;SDS011;8463;48.094;7.970;2023-05-02T09:55:28;7.13;;;6.37;;
2408;SDS011;8463;48.094;7.970;2023-05-02T09:57:54;5.37;;;4.87;;
2408;SDS011;8463;48.094;7.970;2023-05-02T10:00:19;6.47;;;5.87;;
2408;SDS011;8463;48.094;7.970;2023-05-02T10:02:45;7.43;;;6.70;;
2408;SDS011;8463;48.094;7.970;2023-05-02T10:05:18;6.40;;;5.73;;
2408;SDS011;8463;48.094;7.970;2023-05-02T10:07:46;7.37;;;6.67;;
2408;SDS011;8463;48.094;7.970;2023-05-02T10:10:13;6.27;;;5.70;;
2408;SDS011;8463;48.094;7.970;2023-05-02T10:12:44;7.07;;;6.50;;
2408;SDS011;8463;48.094;7.970;2023-05-02T10:15:11;6.90;;;6.20;;
2408;SDS011;8463;48.094;7.970;2023-05-02T10:17:43;5.83;;;5.33;;
2408;SDS011;8463;48.094;7.970;2023-05-02T10:20:15;6.87;;;6.07;;
2408;SDS011;8463;48.094;7.970;2023-05-02T10:22:58;5.40;;;4.90;;
2408;SDS011;8463;48.094;7.970;2023-05-02T10:25:25;6.10;;;4.37;;
2408;SDS011;8463;48.094;7.970;2023-05-02T10:27:56;6.40;;;5.30;;
2408;SDS011;8463;48.094;7.970;2023-05-02T10:30:25;10.30;;;6.33;;
2408;SDS011;8463;48.094;7.970;2023-05-02T10:32:51;6.50;;;5.03;;
2408;SDS011;8463;48.094;7.970;2023-05-02T10:35:23;5.47;;;4.97;;
2408;SDS011;8463;48.094;7.970;2023-05-02T10:37:50;6.37;;;5.60;;
2408;SDS011;8463;48.094;7.970;2023-05-02T10:40:16;6.43;;;5.00;;
2408;SDS011;8463;48.094;7.970;2023-05-02T10:42:43;5.00;;;4.50;;
2408;SDS011;8463;48.094;7.970;2023-05-02T10:45:12;6.60;;;6.10;;
2408;SDS011;8463;48.094;7.970;2023-05-02T10:50:47;6.20;;;4.40;;
2408;SDS011;8463;48.094;7.970;2023-05-02T10:53:26;5.33;;;4.87;;
2408;SDS011;8463;48.094;7.970;2023-05-02T10:56:15;6.10;;;5.50;;
2408;SDS011;8463;48.094;7.970;2023-05-02T10:58:51;6.93;;;5.47;;
2408;SDS011;8463;48.094;7.970;2023-05-02T11:03:59;6.93;;;6.20;;
2408;SDS011;8463;48.094;7.970;2023-05-02T11:06:30;6.60;;;6.00;;
2408;SDS011;8463;48.094;7.970;2023-05-02T11:11:43;5.80;;;5.30;;
2408;SDS011;8463;48.094;7.970;2023-05-02T11:14:33;5.10;;;4.70;;
2408;SDS011;8463;48.094;7.970;2023-05-02T11:24:46;5.40;;;5.00;;
2408;SDS011;8463;48.094;7.970;2023-05-02T11:29:57;5.97;;;5.47;;
2408;SDS011;8463;48.094;7.970;2023-05-02T11:32:23;6.13;;;5.60;;
2408;SDS011;8463;48.094;7.970;2023-05-02T11:37:54;4.70;;;4.30;;
2408;SDS011;8463;48.094;7.970;2023-05-02T11:40:24;7.07;;;4.50;;
2408;SDS011;8463;48.094;7.970;2023-05-02T11:42:51;4.93;;;4.53;;
2408;SDS011;8463;48.094;7.970;2023-05-02T11:45:17;6.50;;;5.13;;
2408;SDS011;8463;48.094;7.970;2023-05-02T11:47:42;5.70;;;5.27;;
2408;SDS011;8463;48.094;7.970;2023-05-02T11:50:10;5.00;;;4.50;;
2408;SDS011;8463;48.094;7.970;2023-05-02T11:52:40;4.90;;;4.50;;
2408;SDS011;8463;48.094;7.970;2023-05-02T11:55:09;7.37;;;5.00;;
2408;SDS011;8463;48.094;7.970;2023-05-02T11:57:38;5.30;;;4.80;;
2408;SDS011;8463;48.094;7.970;2023-05-02T12:00:05;5.43;;;4.93;;
2408;SDS011;8463;48.094;7.970;2023-05-02T12:02:39;5.63;;;5.13;;
2408;SDS011;8463;48.094;7.970;2023-05-02T12:05:12;4.37;;;3.97;;
2408;SDS011;8463;48.094;7.970;2023-05-02T12:07:39;5.30;;;4.90;;
2408;SDS011;8463;48.094;7.970;2023-05-02T12:10:09;4.63;;;4.23;;
2408;SDS011;8463;48.094;7.970;2023-05-02T12:12:39;3.83;;;3.53;;
2408;SDS011;8463;48.094;7.970;2023-05-02T12:15:08;5.80;;;5.00;;
2408;SDS011;8463;48.094;7.970;2023-05-02T12:17:42;5.40;;;4.90;;
2408;SDS011;8463;48.094;7.970;2023-05-02T12:20:13;4.33;;;3.93;;
2408;SDS011;8463;48.094;7.970;2023-05-02T12:22:42;4.80;;;4.40;;
2408;SDS011;8463;48.094;7.970;2023-05-02T12:25:09;4.60;;;4.30;;
2408;SDS011;8463;48.094;7.970;2023-05-02T12:27:34;4.53;;;4.13;;
2408;SDS011;8463;48.094;7.970;2023-05-02T12:30:01;5.00;;;4.50;;
2408;SDS011;8463;48.094;7.970;2023-05-02T12:32:34;5.77;;;4.20;;
2408;SDS011;8463;48.094;7.970;2023-05-02T12:35:00;6.53;;;5.07;;
2408;SDS011;8463;48.094;7.970;2023-05-02T12:37:27;7.60;;;5.27;;
2408;SDS011;8463;48.094;7.970;2023-05-02T12:39:55;5.70;;;5.10;;
2408;SDS011;8463;48.094;7.970;2023-05-02T12:42:21;4.63;;;4.23;;
2408;SDS011;8463;48.094;7.970;2023-05-02T12:44:52;4.40;;;4.00;;
2408;SDS011;8463;48.094;7.970;2023-05-02T12:47:18;5.70;;;3.23;;
2408;SDS011;8463;48.094;7.970;2023-05-02T12:52:14;5.20;;;4.10;;
2408;SDS011;8463;48.094;7.970;2023-05-02T12:54:43;12.33;;;7.70;;
2408;SDS011;8463;48.094;7.970;2023-05-02T12:57:09;4.40;;;4.00;;
2408;SDS011;8463;48.094;7.970;2023-05-02T12:59:35;4.00;;;3.70;;
2408;SDS011;8463;48.094;7.970;2023-05-02T13:02:01;4.63;;;3.87;;
2408;SDS011;8463;48.094;7.970;2023-05-02T13:04:36;4.70;;;4.30;;
2408;SDS011;8463;48.094;7.970;2023-05-02T13:07:04;5.90;;;4.80;;
2408;SDS011;8463;48.094;7.970;2023-05-02T13:09:29;6.17;;;5.50;;
2408;SDS011;8463;48.094;7.970;2023-05-02T13:11:55;5.27;;;4.87;;
2408;SDS011;8463;48.094;7.970;2023-05-02T13:14:24;6.13;;;5.53;;
2408;SDS011;8463;48.094;7.970;2023-05-02T13:16:51;4.37;;;4.07;;
2408;SDS011;8463;48.094;7.970;2023-05-02T13:19:18;4.87;;;4.00;;
2408;SDS011;8463;48.094;7.970;2023-05-02T13:21:56;4.30;;;3.80;;
2408;SDS011;8463;48.094;7.970;2023-05-02T13:24:25;4.77;;;4.37;;
2408;SDS011;8463;48.094;7.970;2023-05-02T13:26:51;4.10;;;3.80;;
2408;SDS011;8463;48.094;7.970;2023-05-02T13:29:16;4.43;;;4.03;;
2408;SDS011;8463;48.094;7.970;2023-05-02T13:31:42;5.23;;;3.70;;
2408;SDS011;8463;48.094;7.970;2023-05-02T13:34:07;4.93;;;3.97;;
2408;SDS011;8463;48.094;7.970;2023-05-02T13:36:36;4.03;;;3.63;;
2408;SDS011;8463;48.094;7.970;2023-05-02T13:39:09;3.93;;;3.50;;
2408;SDS011;8463;48.094;7.970;2023-05-02T13:41:35;4.80;;;4.00;;
2408;SDS011;8463;48.094;7.970;2023-05-02T13:44:02;4.53;;;3.33;;
2408;SDS011;8463;48.094;7.970;2023-05-02T13:46:28;3.37;;;3.17;;
2408;SDS011;8463;48.094;7.970;2023-05-02T13:48:54;4.00;;;3.70;;
2408;SDS011;8463;48.094;7.970;2023-05-02T13:51:19;3.60;;;3.27;;
2408;SDS011;8463;48.094;7.970;2023-05-02T13:53:54;4.17;;;3.77;;
2408;SDS011;8463;48.094;7.970;2023-05-02T13:56:20;4.30;;;3.90;;
2408;SDS011;8463;48.094;7.970;2023-05-02T13:58:48;4.33;;;3.60;;
2408;SDS011;8463;48.094;7.970;2023-05-02T14:01:14;4.70;;;4.00;;
2408;SDS011;8463;48.094;7.970;2023-05-02T14:03:39;4.50;;;3.53;;
2408;SDS011;8463;48.094;7.970;2023-05-02T14:06:05;4.40;;;4.00;;
2408;SDS011;8463;48.094;7.970;2023-05-02T14:08:31;4.13;;;3.80;;
2408;SDS011;8463;48.094;7.970;2023-05-02T14:10:57;4.20;;;3.83;;
2408;SDS011;8463;48.094;7.970;2023-05-02T14:13:23;4.30;;;3.50;;
2408;SDS011;8463;48.094;7.970;2023-05-02T14:15:55;3.40;;;3.10;;
2408;SDS011;8463;48.094;7.970;2023-05-02T14:18:22;3.47;;;3.17;;
2408;SDS011;8463;48.094;7.970;2023-05-02T14:20:54;5.63;;;3.00;;
2408;SDS011;8463;48.094;7.970;2023-05-02T14:23:26;3.50;;;2.90;;
2408;SDS011;8463;48.094;7.970;2023-05-02T14:25:54;2.83;;;2.63;;
2408;SDS011;8463;48.094;7.970;2023-05-02T14:28:20;3.27;;;3.03;;
2408;SDS011;8463;48.094;7.970;2023-05-02T14:30:50;4.00;;;3.23;;
2408;SDS011;8463;48.094;7.970;2023-05-02T14:33:16;3.60;;;2.90;;
2408;SDS011;8463;48.094;7.970;2023-05-02T14:35:48;3.93;;;3.07;;
2408;SDS011;8463;48.094;7.970;2023-05-02T14:38:19;3.90;;;3.10;;
2408;SDS011;8463;48.094;7.970;2023-05-02T14:40:45;2.83;;;2.63;;
2408;SDS011;8463;48.094;7.970;2023-05-02T14:43:11;3.43;;;3.13;;
2408;SDS011;8463;48.094;7.970;2023-05-02T14:45:37;3.23;;;2.93;;
2408;SDS011;8463;48.094;7.970;2023-05-02T14:48:05;3.97;;;3.57;;
2408;SDS011;8463;48.094;7.970;2023-05-02T14:50:31;4.40;;;4.00;;
2408;SDS011;8463;48.094;7.970;2023-05-02T14:52:57;5.60;;;4.77;;
2408;SDS011;8463;48.094;7.970;2023-05-02T14:55:22;8.30;;;5.97;;
2408;SDS011;8463;48.094;7.970;2023-05-02T14:57:50;6.77;;;6.10;;
2408;SDS011;8463;48.094;7.970;2023-05-02T15:00:16;6.03;;;5.43;;
2408;SDS011;8463;48.094;7.970;2023-05-02T15:02:45;5.73;;;5.20;;
2408;SDS011;8463;48.094;7.970;2023-05-02T15:05:11;7.00;;;5.30;;
2408;SDS011;8463;48.094;7.970;2023-05-02T15:07:37;6.80;;;6.10;;
2408;SDS011;8463;48.094;7.970;2023-05-02T15:10:04;6.63;;;5.87;;
2408;SDS011;8463;48.094;7.970;2023-05-02T15:12:30;5.90;;;5.40;;
2408;SDS011;8463;48.094;7.970;2023-05-02T15:14:56;6.73;;;6.13;;
2408;SDS011;8463;48.094;7.970;2023-05-02T15:17:22;6.53;;;6.03;;
2408;SDS011;8463;48.094;7.970;2023-05-02T15:19:47;7.57;;;6.90;;
2408;SDS011;8463;48.094;7.970;2023-05-02T15:22:13;7.33;;;6.30;;
2408;SDS011;8463;48.094;7.970;2023-05-02T15:24:40;6.87;;;6.17;;
2408;SDS011;8463;48.094;7.970;2023-05-02T15:27:05;8.00;;;6.80;;
2408;SDS011;8463;48.094;7.970;2023-05-02T15:29:33;7.33;;;6.70;;
2408;SDS011;8463;48.094;7.970;2023-05-02T15:32:00;6.97;;;6.37;;
2408;SDS011;8463;48.094;7.970;2023-05-02T15:34:26;6.80;;;6.00;;
2408;SDS011;8463;48.094;7.970;2023-05-02T15:36:52;7.50;;;6.70;;
2408;SDS011;8463;48.094;7.970;2023-05-02T15:39:20;8.13;;;7.40;;
2408;SDS011;8463;48.094;7.970;2023-05-02T15:41:48;7.63;;;7.00;;
2408;SDS011;8463;48.094;7.970;2023-05-02T15:44:14;7.97;;;7.27;;
2408;SDS011;8463;48.094;7.970;2023-05-02T15:46:40;8.63;;;7.80;;
2408;SDS011;8463;48.094;7.970;2023-05-02T15:49:10;8.47;;;7.67;;
2408;SDS011;8463;48.094;7.970;2023-05-02T15:51:36;7.63;;;6.93;;
2408;SDS011;8463;48.094;7.970;2023-05-02T15:54:02;7.27;;;6.60;;
2408;SDS011;8463;48.094;7.970;2023-05-02T15:56:28;8.40;;;7.47;;
2408;SDS011;8463;48.094;7.970;2023-05-02T15:58:59;6.83;;;6.23;;
2408;SDS011;8463;48.094;7.970;2023-05-02T16:01:25;6.70;;;6.10;;
2408;SDS011;8463;48.094;7.970;2023-05-02T16:03:53;7.97;;;7.20;;
2408;SDS011;8463;48.094;7.970;2023-05-02T16:06:22;8.97;;;6.97;;
2408;SDS011;8463;48.094;7.970;2023-05-02T16:08:47;8.37;;;7.53;;